createdAt,value
2022-10-16T00:00:49.866Z,100651.00
2022-10-16T00:03:16.186Z,100654.53
2022-10-16T00:05:43.021Z,100666.78
2022-10-16T00:08:09.957Z,100658.22
2022-10-16T00:10:36.343Z,100670.47
2022-10-16T00:13:02.662Z,100666.94
2022-10-16T00:15:29.073Z,100666.78
2022-10-16T00:17:55.397Z,100664.56
2022-10-16T00:20:21.718Z,100680.44
2022-10-16T00:22:48.110Z,100678.31
2022-10-16T00:25:14.433Z,100682.59
2022-10-16T00:27:40.755Z,100683.31
2022-10-16T00:30:09.155Z,100678.38
2022-10-16T00:32:35.502Z,100684.06
2022-10-16T00:35:02.079Z,100686.22
2022-10-16T00:37:28.394Z,100694.13
2022-10-16T00:39:54.691Z,100686.84
2022-10-16T00:42:21.012Z,100685.56
2022-10-16T00:44:48.366Z,100680.63
2022-10-16T00:47:17.272Z,100683.31
2022-10-16T00:49:43.591Z,100681.84
2022-10-16T00:52:09.911Z,100696.25
2022-10-16T00:54:36.291Z,100698.38
2022-10-16T00:57:03.440Z,100705.63
2022-10-16T00:59:33.832Z,100696.91
2022-10-16T01:02:00.194Z,100699.78
2022-10-16T01:04:26.721Z,100693.38
2022-10-16T01:06:57.474Z,100696.91
2022-10-16T01:09:23.717Z,100695.44
2022-10-16T01:11:53.762Z,100706.19
2022-10-16T01:14:22.280Z,100705.56
2022-10-16T01:16:50.646Z,100701.94
2022-10-16T01:19:18.793Z,100708.44
2022-10-16T01:21:45.666Z,100704.13
2022-10-16T01:24:26.610Z,100706.97
2022-10-16T01:27:04.399Z,100721.38
2022-10-16T01:29:31.194Z,100721.41
2022-10-16T01:31:59.133Z,100714.19
2022-10-16T01:34:36.494Z,100708.44
2022-10-16T01:37:03.747Z,100721.41
2022-10-16T01:39:30.639Z,100722.19
2022-10-16T01:41:59.226Z,100718.47
2022-10-16T01:44:32.316Z,100719.94
2022-10-16T01:46:58.622Z,100725.72
2022-10-16T01:49:25.551Z,100723.47
2022-10-16T01:51:52.115Z,100722.75
2022-10-16T01:54:18.443Z,100740.13
2022-10-16T01:56:44.802Z,100735.75
2022-10-16T01:59:12.216Z,100745.13
2022-10-16T02:01:39.564Z,100740.75
2022-10-16T02:04:09.564Z,100740.03
2022-10-16T02:06:36.826Z,100745.78
2022-10-16T02:09:03.129Z,100753.78
2022-10-16T02:11:29.443Z,100752.19
2022-10-16T02:13:56.659Z,100760.19
2022-10-16T02:16:24.194Z,100771.78
2022-10-16T02:18:50.508Z,100770.31
2022-10-16T02:21:20.604Z,100755.84
2022-10-16T02:24:05.777Z,100753.78
2022-10-16T02:26:33.623Z,100766.03
2022-10-16T02:29:01.416Z,100768.25
2022-10-16T02:31:28.819Z,100768.09
2022-10-16T02:33:55.869Z,100773.94
2022-10-16T02:36:22.211Z,100775.31
2022-10-16T02:38:48.526Z,100765.94
2022-10-16T02:41:14.989Z,100772.44
2022-10-16T02:43:41.314Z,100769.56
2022-10-16T02:46:07.639Z,100772.44
2022-10-16T02:48:33.994Z,100768.81
2022-10-16T02:51:00.396Z,100771.63
2022-10-16T02:53:26.737Z,100763.06
2022-10-16T02:55:53.100Z,100761.59
2022-10-16T02:58:19.426Z,100764.47
2022-10-16T03:00:45.885Z,100769.47
2022-10-16T03:03:12.259Z,100777.38
2022-10-16T03:05:38.581Z,100778.88
2022-10-16T03:08:04.949Z,100774.59
2022-10-16T03:10:31.272Z,100773.94
2022-10-16T03:12:57.589Z,100774.59
2022-10-16T03:15:23.938Z,100781.91
2022-10-16T03:17:50.286Z,100787.59
2022-10-16T03:20:16.623Z,100789.63
2022-10-16T03:22:42.925Z,100786.09
2022-10-16T03:25:09.247Z,100791.88
2022-10-16T03:27:35.557Z,100800.59
2022-10-16T03:30:01.894Z,100801.91
2022-10-16T03:32:29.532Z,100797.63
2022-10-16T03:34:57.356Z,100806.91
2022-10-16T03:37:23.921Z,100811.94
2022-10-16T03:39:50.397Z,100817.69
2022-10-16T03:42:16.730Z,100817.88
2022-10-16T03:44:43.069Z,100829.41
2022-10-16T03:47:09.398Z,100820.66
2022-10-16T03:49:35.733Z,100825.78
2022-10-16T03:52:02.047Z,100838.03
2022-10-16T03:54:28.429Z,100837.22
2022-10-16T03:56:54.738Z,100837.94
2022-10-16T03:59:21.131Z,100839.44
2022-10-16T04:01:47.438Z,100842.31
2022-10-16T04:04:13.762Z,100842.31
2022-10-16T04:06:40.092Z,100845.22
2022-10-16T04:09:06.464Z,100852.44
2022-10-16T04:11:32.792Z,100838.69
2022-10-16T04:13:59.132Z,100840.91
2022-10-16T04:16:25.473Z,100842.31
2022-10-16T04:18:51.795Z,100843.88
2022-10-16T04:21:18.106Z,100843.88
2022-10-16T04:23:44.424Z,100829.56
2022-10-16T04:26:11.402Z,100830.31
2022-10-16T04:28:37.865Z,100841.09
2022-10-16T04:31:06.975Z,100832.44
2022-10-16T04:33:33.565Z,100822.31
2022-10-16T04:36:00.086Z,100826.69
2022-10-16T04:38:26.426Z,100821.66
2022-10-16T04:40:53.027Z,100809.41
2022-10-16T04:43:19.398Z,100816.56
2022-10-16T04:45:45.745Z,100818.06
2022-10-16T04:48:12.050Z,100819.34
2022-10-16T04:50:38.365Z,100820.94
2022-10-16T04:53:08.112Z,100827.44
2022-10-16T04:55:34.462Z,100836.81
2022-10-16T04:58:00.775Z,100835.34
2022-10-16T05:00:27.096Z,100841.75
2022-10-16T05:02:53.472Z,100841.09
2022-10-16T05:05:24.008Z,100846.84
2022-10-16T05:07:50.627Z,100861.25
2022-10-16T05:10:16.976Z,100864.88
2022-10-16T05:12:43.698Z,100856.97
2022-10-16T05:15:10.261Z,100861.34
2022-10-16T05:17:38.894Z,100856.88
2022-10-16T05:20:06.450Z,100842.56
2022-10-16T05:22:32.761Z,100832.28
2022-10-16T05:24:59.090Z,100848.22
2022-10-16T05:27:25.667Z,100849.66
2022-10-16T05:29:52.138Z,100851.13
2022-10-16T05:32:18.649Z,100855.41
2022-10-16T05:34:44.979Z,100861.91
2022-10-16T05:37:12.437Z,100869.91
2022-10-16T05:39:39.025Z,100861.91
2022-10-16T05:42:05.646Z,100866.19
2022-10-16T05:44:32.017Z,100871.94
2022-10-16T05:46:58.327Z,100867.66
2022-10-16T05:49:24.653Z,100861.16
2022-10-16T05:51:50.988Z,100866.94
2022-10-16T05:54:17.434Z,100871.19
2022-10-16T05:56:43.792Z,100869.81
2022-10-16T05:59:10.111Z,100873.34
2022-10-16T06:01:36.605Z,100879.84
2022-10-16T06:04:03.002Z,100888.47
2022-10-16T06:06:30.434Z,100888.47
2022-10-16T06:08:56.808Z,100882.72
2022-10-16T06:11:26.893Z,100884.84
2022-10-16T06:13:53.628Z,100896.38
2022-10-16T06:16:19.974Z,100887.72
2022-10-16T06:18:46.331Z,100888.47
2022-10-16T06:21:13.449Z,100904.59
2022-10-16T06:23:39.865Z,100907.66
2022-10-16T06:26:07.055Z,100914.25
2022-10-16T06:28:33.924Z,100918.78
2022-10-16T06:31:04.211Z,100920.09
2022-10-16T06:33:33.695Z,100917.84
2022-10-16T06:36:03.785Z,100925.66
2022-10-16T06:38:30.157Z,100933.44
2022-10-16T06:40:56.465Z,100936.28
2022-10-16T06:43:22.806Z,100942.66
2022-10-16T06:45:55.766Z,100926.31
2022-10-16T06:48:22.309Z,100930.13
2022-10-16T06:50:58.384Z,100925.09
2022-10-16T06:53:24.802Z,100931.63
2022-10-16T06:55:51.125Z,100937.38
2022-10-16T06:58:17.465Z,100943.88
2022-10-16T07:00:43.786Z,100956.88
2022-10-16T07:03:10.127Z,100963.34
2022-10-16T07:05:39.661Z,100951.09
2022-10-16T07:08:06.311Z,100951.84
2022-10-16T07:10:32.887Z,100958.38
2022-10-16T07:12:59.216Z,100962.63
2022-10-16T07:15:25.699Z,100957.59
2022-10-16T07:17:52.031Z,100957.59
2022-10-16T07:20:18.351Z,100959.00
2022-10-16T07:22:44.739Z,100946.84
2022-10-16T07:25:11.943Z,100951.09
2022-10-16T07:30:09.593Z,100956.88
2022-10-16T07:32:35.926Z,100972.00
2022-10-16T07:35:02.253Z,100961.16
2022-10-16T07:37:28.736Z,100960.47
2022-10-16T07:39:55.309Z,100979.16
2022-10-16T07:42:21.719Z,100971.94
2022-10-16T07:44:48.043Z,100972.00
2022-10-16T07:47:14.368Z,100965.41
2022-10-16T07:49:40.897Z,100974.88
2022-10-16T07:52:07.215Z,100983.47
2022-10-16T07:54:33.558Z,100989.28
2022-10-16T07:56:59.871Z,100993.66
2022-10-16T07:59:26.231Z,100993.66
2022-10-16T08:01:52.650Z,100993.75
2022-10-16T08:04:19.049Z,101013.91
2022-10-16T08:06:45.369Z,101017.53
2022-10-16T08:09:11.755Z,101021.16
2022-10-16T08:11:38.065Z,101020.41
2022-10-16T08:14:04.385Z,101015.41
2022-10-16T08:16:30.721Z,101012.59
2022-10-16T08:18:57.058Z,101015.41
2022-10-16T08:21:24.169Z,101005.38
2022-10-16T08:23:54.807Z,101008.34
2022-10-16T08:26:24.542Z,101015.41
2022-10-16T08:28:51.758Z,101024.13
2022-10-16T08:33:49.424Z,101024.13
2022-10-16T08:36:15.753Z,101022.66
2022-10-16T08:38:42.084Z,101028.63
2022-10-16T08:41:18.882Z,101028.63
2022-10-16T08:43:55.977Z,101027.22
2022-10-16T08:46:25.360Z,101020.00
2022-10-16T08:48:52.459Z,101027.13
2022-10-16T08:51:28.968Z,101032.25
2022-10-16T08:54:27.975Z,101034.41
2022-10-16T08:56:57.554Z,101040.16
2022-10-16T08:59:23.875Z,101044.41
2022-10-16T09:01:51.359Z,101057.44
2022-10-16T09:04:17.596Z,101050.28
2022-10-16T09:06:47.104Z,101058.91
2022-10-16T09:09:20.012Z,101063.94
2022-10-16T09:11:48.809Z,101065.41
2022-10-16T09:14:15.392Z,101066.16
2022-10-16T09:16:43.665Z,101065.41
2022-10-16T09:19:13.245Z,101053.16
2022-10-16T09:21:41.037Z,101045.97
2022-10-16T09:24:17.547Z,101064.78
2022-10-16T09:26:45.475Z,101057.50
2022-10-16T09:29:15.510Z,101070.44
2022-10-16T09:31:42.518Z,101076.28
2022-10-16T09:34:14.461Z,101074.78
2022-10-16T09:36:42.187Z,101074.88
2022-10-16T09:39:09.206Z,101080.75
2022-10-16T09:41:35.776Z,101093.69
2022-10-16T09:44:02.739Z,101097.19
2022-10-16T09:46:29.317Z,101099.44
2022-10-16T09:48:56.943Z,101098.69
2022-10-16T09:51:24.985Z,101100.81
2022-10-16T09:53:55.251Z,101109.47
2022-10-16T09:56:22.579Z,101103.16
2022-10-16T09:58:55.649Z,101108.28
2022-10-16T10:01:22.026Z,101101.66
2022-10-16T10:03:49.304Z,101106.88
2022-10-16T10:06:17.593Z,101108.34
2022-10-16T10:08:56.932Z,101107.78
2022-10-16T10:11:42.552Z,101099.97
2022-10-16T10:14:21.779Z,101106.31
2022-10-16T10:16:48.106Z,101110.59
2022-10-16T10:19:15.347Z,101101.09
2022-10-16T10:21:41.737Z,101112.63
2022-10-16T10:24:10.973Z,101117.00
2022-10-16T10:26:40.177Z,101128.50
2022-10-16T10:29:11.635Z,101137.91
2022-10-16T10:31:40.275Z,101127.88
2022-10-16T10:34:25.484Z,101133.63
2022-10-16T10:36:58.034Z,101134.38
2022-10-16T10:39:26.631Z,101140.13
2022-10-16T10:41:52.918Z,101131.59
2022-10-16T10:44:32.040Z,101125.09
2022-10-16T10:46:58.947Z,101129.44
2022-10-16T10:49:40.833Z,101131.03
2022-10-16T10:52:18.010Z,101133.72
2022-10-16T10:54:49.058Z,101121.56
2022-10-16T10:57:33.349Z,101127.31
2022-10-16T11:00:03.022Z,101128.78
2022-10-16T11:02:37.090Z,101125.19
2022-10-16T11:05:19.414Z,101127.31
2022-10-16T11:07:48.468Z,101124.53
2022-10-16T11:10:20.579Z,101138.19
2022-10-16T11:12:48.237Z,101138.94
2022-10-16T11:15:17.576Z,101140.31
2022-10-16T11:17:45.994Z,101136.72
2022-10-16T11:20:23.012Z,101133.81
2022-10-16T11:22:51.189Z,101138.84
2022-10-16T11:25:19.583Z,101133.09
2022-10-16T11:27:48.471Z,101139.59
2022-10-16T11:30:20.226Z,101133.81
2022-10-16T11:32:51.614Z,101136.72
2022-10-16T11:35:23.481Z,101137.34
2022-10-16T11:37:49.851Z,101133.81
2022-10-16T11:40:26.569Z,101141.06
2022-10-16T11:42:55.339Z,101142.56
2022-10-16T11:45:25.728Z,101148.34
2022-10-16T11:47:59.646Z,101148.34
2022-10-16T11:50:30.513Z,101154.09
2022-10-16T11:53:10.782Z,101150.91
2022-10-16T11:55:40.552Z,101152.59
2022-10-16T11:58:21.591Z,101154.81
2022-10-16T12:00:48.826Z,101162.84
2022-10-16T12:03:20.184Z,101162.16
2022-10-16T12:06:05.324Z,101170.81
2022-10-16T12:08:31.682Z,101173.88
2022-10-16T12:11:06.910Z,101179.00
2022-10-16T12:13:35.328Z,101174.50
2022-10-16T12:16:25.211Z,101176.00
2022-10-16T12:18:51.533Z,101177.38
2022-10-16T12:21:19.935Z,101169.22
2022-10-16T12:23:50.468Z,101178.06
2022-10-16T12:26:24.606Z,101171.13
2022-10-16T12:28:52.726Z,101181.44
2022-10-16T12:31:19.238Z,101177.97
2022-10-16T12:33:54.937Z,101182.84
2022-10-16T12:36:28.652Z,101186.53
2022-10-16T12:38:54.986Z,101190.69
2022-10-16T12:41:31.025Z,101181.88
2022-10-16T12:43:57.434Z,101181.88
2022-10-16T12:46:23.670Z,101192.16
2022-10-16T12:49:06.023Z,101193.84
2022-10-16T12:51:33.674Z,101200.94
2022-10-16T12:54:01.114Z,101190.13
2022-10-16T12:56:30.394Z,101203.75
2022-10-16T12:59:05.989Z,101203.00
2022-10-16T13:01:38.722Z,101197.22
2022-10-16T13:04:11.050Z,101205.66
2022-10-16T13:06:40.346Z,101202.06
2022-10-16T13:09:09.673Z,101201.97
2022-10-16T13:11:40.606Z,101207.06
2022-10-16T13:14:10.930Z,101214.88
2022-10-16T13:16:49.420Z,101214.88
2022-10-16T13:19:22.883Z,101221.38
2022-10-16T13:21:58.006Z,101232.19
2022-10-16T13:24:43.095Z,101230.50
2022-10-16T13:27:25.654Z,101231.16
2022-10-16T13:29:53.651Z,101244.09
2022-10-16T13:32:19.982Z,101236.28
2022-10-16T13:34:46.542Z,101234.97
2022-10-16T13:37:19.456Z,101241.97
2022-10-16T13:39:45.802Z,101241.97
2022-10-16T13:42:16.507Z,101247.09
2022-10-16T13:44:43.834Z,101238.44
2022-10-16T13:47:20.058Z,101236.28
2022-10-16T13:49:46.381Z,101234.81
2022-10-16T13:52:19.341Z,101239.06
2022-10-16T13:54:45.701Z,101240.56
2022-10-16T13:57:26.813Z,101243.38
2022-10-16T13:59:54.289Z,101244.75
2022-10-16T14:02:22.807Z,101239.72
2022-10-16T14:04:49.413Z,101249.88
2022-10-16T14:07:20.617Z,101251.91
2022-10-16T14:09:49.074Z,101249.69
2022-10-16T14:12:15.429Z,101258.97
2022-10-16T14:14:42.592Z,101261.22
2022-10-16T14:17:15.798Z,101260.47
2022-10-16T14:19:42.179Z,101256.84
2022-10-16T14:22:44.288Z,101260.47
2022-10-16T14:25:19.537Z,101258.97
2022-10-16T14:27:45.914Z,101257.41
2022-10-16T14:30:13.428Z,101258.91
2022-10-16T14:32:40.830Z,101263.91
2022-10-16T14:35:22.520Z,101264.56
2022-10-16T14:37:51.651Z,101271.81
2022-10-16T14:40:17.967Z,101268.84
2022-10-16T14:42:44.289Z,101268.84
2022-10-16T14:45:10.670Z,101276.66
2022-10-16T14:47:37.046Z,101272.41
2022-10-16T14:50:03.464Z,101273.13
2022-10-16T14:52:29.833Z,101277.38
2022-10-16T14:54:57.348Z,101273.03
2022-10-16T14:57:24.502Z,101281.69
2022-10-16T14:59:53.857Z,101285.94
2022-10-16T15:02:30.026Z,101290.97
2022-10-16T15:04:56.400Z,101283.00
2022-10-16T15:07:22.737Z,101290.22
2022-10-16T15:09:49.497Z,101294.53
2022-10-16T15:12:16.157Z,101298.06
2022-10-16T15:14:42.488Z,101294.44
2022-10-16T15:17:11.894Z,101298.78
2022-10-16T15:19:38.222Z,101308.84
2022-10-16T15:22:04.521Z,101311.63
2022-10-16T15:24:30.846Z,101309.56
2022-10-16T15:26:57.413Z,101316.72
2022-10-16T15:29:23.718Z,101324.63
2022-10-16T15:31:50.031Z,101328.94
2022-10-16T15:34:16.393Z,101324.44
2022-10-16T15:36:42.697Z,101325.09
2022-10-16T15:39:15.597Z,101335.97
2022-10-16T15:41:42.401Z,101330.41
2022-10-16T15:44:08.881Z,101346.31
2022-10-16T15:46:35.461Z,101349.22
2022-10-16T15:49:01.805Z,101344.81
2022-10-16T15:51:30.897Z,101349.75
2022-10-16T15:53:57.865Z,101351.88
2022-10-16T15:56:26.243Z,101350.31
2022-10-16T15:58:52.785Z,101356.16
2022-10-16T16:01:19.199Z,101360.34
2022-10-16T16:03:45.582Z,101364.78
2022-10-16T16:06:12.827Z,101363.31
2022-10-16T16:08:39.139Z,101363.31
2022-10-16T16:11:09.050Z,101362.56
2022-10-16T16:13:35.450Z,101371.75
2022-10-16T16:16:01.755Z,101377.44
2022-10-16T16:18:29.543Z,101380.97
2022-10-16T16:20:56.549Z,101394.53
2022-10-16T16:23:23.161Z,101388.69
2022-10-16T16:26:07.694Z,101385.78
2022-10-16T16:28:34.248Z,101387.06
2022-10-16T16:31:00.622Z,101389.00
2022-10-16T16:33:26.950Z,101395.44
2022-10-16T16:35:56.839Z,101398.31
2022-10-16T16:38:23.157Z,101407.59
2022-10-16T16:40:52.882Z,101411.13
2022-10-16T16:43:25.978Z,101414.66
2022-10-16T16:45:52.334Z,101428.84
2022-10-16T16:48:18.739Z,101432.59
2022-10-16T16:50:45.077Z,101443.38
2022-10-16T16:53:11.427Z,101451.16
2022-10-16T16:55:37.737Z,101458.19
2022-10-16T16:58:04.564Z,101459.72
2022-10-16T17:00:31.782Z,101457.34
2022-10-16T17:02:58.151Z,101462.25
2022-10-16T17:05:24.498Z,101463.53
2022-10-16T17:07:50.818Z,101465.16
2022-10-16T17:10:17.175Z,101468.66
2022-10-16T17:12:43.572Z,101471.28
2022-10-16T17:15:10.037Z,101474.84
2022-10-16T17:17:36.358Z,101476.31
2022-10-16T17:20:02.685Z,101481.22
2022-10-16T17:22:29.318Z,101493.31
2022-10-16T17:24:55.869Z,101490.41
2022-10-16T17:27:22.778Z,101497.44
2022-10-16T17:29:52.413Z,101498.72
2022-10-16T17:32:20.618Z,101508.84
2022-10-16T17:34:46.938Z,101518.91
2022-10-16T17:37:15.736Z,101512.28
2022-10-16T17:39:44.434Z,101519.53
2022-10-16T17:42:10.859Z,101518.78
2022-10-16T17:44:37.215Z,101517.38
2022-10-16T17:47:03.534Z,101510.03
2022-10-16T17:49:30.590Z,101501.28
2022-10-16T17:51:56.982Z,101500.97
2022-10-16T17:54:23.324Z,101508.84
2022-10-16T17:56:49.668Z,101510.75
2022-10-16T17:59:16.026Z,101512.16
2022-10-16T18:01:45.355Z,101510.88
2022-10-16T18:04:13.070Z,101528.16
2022-10-16T18:06:39.471Z,101524.09
2022-10-16T18:09:06.285Z,101524.56
2022-10-16T18:11:32.725Z,101527.88
2022-10-16T18:13:59.066Z,101527.97
2022-10-16T18:16:25.707Z,101530.22
2022-10-16T18:18:52.062Z,101528.06
2022-10-16T18:21:18.710Z,101539.44
2022-10-16T18:23:50.908Z,101534.19
2022-10-16T18:26:18.437Z,101545.44
2022-10-16T18:28:44.856Z,101546.53
2022-10-16T18:31:11.991Z,101555.41
2022-10-16T18:33:38.315Z,101559.28
2022-10-16T18:36:05.376Z,101558.53
2022-10-16T18:38:31.784Z,101563.56
2022-10-16T18:40:58.185Z,101564.28
2022-10-16T18:43:24.565Z,101580.41
2022-10-16T18:45:57.277Z,101579.66
2022-10-16T18:48:23.658Z,101585.81
2022-10-16T18:50:49.975Z,101593.22
2022-10-16T18:53:16.405Z,101580.81
2022-10-16T18:55:42.918Z,101580.81
2022-10-16T18:58:09.233Z,101576.00
2022-10-16T19:00:35.565Z,101575.13
2022-10-16T19:03:01.913Z,101579.81
2022-10-16T19:05:28.263Z,101586.78
2022-10-16T19:07:54.575Z,101581.84
2022-10-16T19:10:20.898Z,101582.28
2022-10-16T19:12:47.214Z,101587.41
2022-10-16T19:15:13.791Z,101592.94
2022-10-16T19:17:40.118Z,101600.53
2022-10-16T19:20:06.654Z,101593.72
2022-10-16T19:22:51.685Z,101590.31
2022-10-16T19:25:18.422Z,101592.78
2022-10-16T19:27:44.783Z,101583.88
2022-10-16T19:32:42.470Z,101591.59
2022-10-16T19:35:11.418Z,101589.03
2022-10-16T19:37:37.774Z,101606.97
2022-10-16T19:40:04.922Z,101612.66
2022-10-16T19:42:36.237Z,101613.41
2022-10-16T19:45:02.598Z,101614.78
2022-10-16T19:47:28.924Z,101609.66
2022-10-16T19:49:55.324Z,101615.00
2022-10-16T19:52:22.249Z,101618.50
2022-10-16T19:54:48.821Z,101625.56
2022-10-16T19:57:15.498Z,101628.34
2022-10-16T19:59:44.912Z,101626.75
2022-10-16T20:02:12.410Z,101615.22
2022-10-16T20:04:38.825Z,101626.75
2022-10-16T20:07:05.810Z,101633.88
2022-10-16T20:09:32.767Z,101628.13
2022-10-16T20:11:59.085Z,101638.28
2022-10-16T20:14:25.393Z,101648.94
2022-10-16T20:16:53.250Z,101654.19
2022-10-16T20:19:19.557Z,101649.69
2022-10-16T20:21:45.876Z,101658.22
2022-10-16T20:24:12.210Z,101658.13
2022-10-16T20:26:38.579Z,101665.47
2022-10-16T20:29:04.994Z,101674.03
2022-10-16T20:31:31.659Z,101670.28
2022-10-16T20:33:58.358Z,101665.28
2022-10-16T20:36:25.086Z,101666.66
2022-10-16T20:38:51.417Z,101669.53
2022-10-16T20:41:18.160Z,101669.53
2022-10-16T20:43:45.074Z,101670.94
2022-10-16T20:46:14.950Z,101669.31
2022-10-16T20:48:44.099Z,101668.06
2022-10-16T20:51:11.313Z,101668.06
2022-10-16T20:53:39.518Z,101670.81
2022-10-16T20:56:05.970Z,101663.66
2022-10-16T20:58:32.319Z,101672.97
2022-10-16T21:01:04.325Z,101664.94
2022-10-16T21:03:31.215Z,101664.94
2022-10-16T21:05:59.999Z,101677.88
2022-10-16T21:08:26.567Z,101682.34
2022-10-16T21:10:52.899Z,101690.88
2022-10-16T21:13:19.453Z,101683.63
2022-10-16T21:15:45.773Z,101683.63
2022-10-16T21:18:12.706Z,101676.13
2022-10-16T21:20:43.243Z,101685.63
2022-10-16T21:23:10.074Z,101695.69
2022-10-16T21:25:36.447Z,101699.19
2022-10-16T21:28:02.775Z,101694.94
2022-10-16T21:30:29.113Z,101702.19
2022-10-16T21:32:55.435Z,101699.41
2022-10-16T21:35:21.750Z,101700.06
2022-10-16T21:37:48.651Z,101710.72
2022-10-16T21:40:14.972Z,101710.72
2022-10-16T21:42:41.287Z,101729.41
2022-10-16T21:45:07.746Z,101732.28
2022-10-16T21:47:34.131Z,101736.53
2022-10-16T21:50:00.472Z,101730.91
2022-10-16T21:52:26.953Z,101731.75
2022-10-16T21:54:53.409Z,101729.41
2022-10-16T21:57:19.709Z,101729.28
2022-10-16T21:59:46.031Z,101716.38
2022-10-16T22:02:12.776Z,101709.00
2022-10-16T22:04:39.102Z,101716.28
2022-10-16T22:07:05.411Z,101724.03
2022-10-16T22:09:31.734Z,101726.31
2022-10-16T22:11:58.051Z,101736.34
2022-10-16T22:14:24.489Z,101725.56
2022-10-16T22:16:50.801Z,101723.31
2022-10-16T22:19:18.022Z,101712.50
2022-10-16T22:21:47.002Z,101716.28
2022-10-16T22:24:13.557Z,101725.03
2022-10-16T22:26:39.874Z,101724.03
2022-10-16T22:29:06.411Z,101722.06
2022-10-16T22:31:32.850Z,101731.31
2022-10-16T22:33:59.821Z,101729.19
2022-10-16T22:36:26.140Z,101726.19
2022-10-16T22:38:53.120Z,101719.06
2022-10-16T22:41:19.445Z,101719.06
2022-10-16T22:43:47.970Z,101723.41
2022-10-16T22:46:15.454Z,101729.06
2022-10-16T22:48:41.833Z,101726.06
2022-10-16T22:51:08.237Z,101725.88
2022-10-16T22:53:34.545Z,101726.06
2022-10-16T22:56:00.883Z,101731.84
2022-10-16T22:58:27.202Z,101731.84
2022-10-16T23:00:53.669Z,101731.72
2022-10-16T23:03:20.087Z,101728.84
2022-10-16T23:05:46.439Z,101731.63
2022-10-16T23:08:12.755Z,101732.50
2022-10-16T23:10:39.149Z,101728.09
2022-10-16T23:13:05.468Z,101728.84
2022-10-16T23:15:31.793Z,101730.34
2022-10-16T23:17:58.122Z,101726.72
2022-10-16T23:20:24.453Z,101723.59
2022-10-16T23:22:50.787Z,101727.09
2022-10-16T23:25:17.138Z,101724.34
2022-10-16T23:27:43.488Z,101734.38
2022-10-16T23:30:09.960Z,101718.59
2022-10-16T23:32:36.286Z,101724.22
2022-10-16T23:35:02.620Z,101725.59
2022-10-16T23:37:28.926Z,101731.38
2022-10-16T23:39:55.254Z,101730.59
2022-10-16T23:42:21.571Z,101738.63
2022-10-16T23:44:47.886Z,101740.13
2022-10-16T23:47:14.204Z,101752.28
2022-10-16T23:49:40.531Z,101745.88
2022-10-16T23:52:07.218Z,101750.75
2022-10-16T23:54:33.542Z,101752.91
2022-10-16T23:56:59.858Z,101744.16
2022-10-16T23:59:26.185Z,101746.41
